Time;durP1;ratioP1;P1;durP2;ratioP2;P2;SDS_P1;SDS_P2;PMS_P1;PMS_P2;Temp;Humidity;BMP_temperature;BMP_pressure;BME280_temperature;BME280_humidity;BME280_pressure;Samples;Min_cycle;Max_cycle;Signal;HPM_P1;HPM_P2
2021/08/19 00:01:00;;;;;;;;;;;14.00;94.80;;;;;;4934808;29;20913;-70
2021/08/19 00:03:26;;;;;;;4.03;2.05;;;14.10;94.70;;;;;;4934316;29;20427;-70
2021/08/19 00:05:51;;;;;;;4.82;2.50;;;14.00;94.80;;;;;;4934261;29;20040;-69
2021/08/19 00:08:17;;;;;;;;;;;13.90;94.90;;;;;;4934855;29;20038;-71
2021/08/19 00:10:43;;;;;;;5.50;2.72;;;13.90;95.10;;;;;;4934033;29;20340;-71
2021/08/19 00:13:08;;;;;;;;;;;13.90;95.10;;;;;;4934802;29;20429;-70
2021/08/19 00:15:34;;;;;;;4.72;2.35;;;13.90;95.30;;;;;;4917052;29;19907;-71
2021/08/19 00:17:59;;;;;;;;;;;13.80;95.40;;;;;;4917606;29;20075;-71
2021/08/19 00:20:25;;;;;;;3.17;2.15;;;13.80;95.60;;;;;;4934063;29;19942;-71
2021/08/19 00:22:51;;;;;;;;;;;13.80;95.80;;;;;;4934229;29;20492;-71
2021/08/19 00:25:16;;;;;;;5.32;2.30;;;13.70;95.70;;;;;;4933793;29;20307;-70
2021/08/19 00:27:42;;;;;;;;;;;13.70;95.70;;;;;;4934344;29;20039;-70
2021/08/19 00:30:08;;;;;;;5.88;2.28;;;13.70;96.00;;;;;;4933947;29;19937;-70
2021/08/19 00:32:34;;;;;;;4.93;2.28;;;13.70;96.00;;;;;;4933606;29;20086;-70
2021/08/19 00:34:59;;;;;;;;;;;13.60;96.10;;;;;;4933737;29;20091;-70
2021/08/19 00:37:25;;;;;;;8.35;2.72;;;13.60;96.40;;;;;;4933609;29;20409;-70
2021/08/19 00:39:51;;;;;;;;;;;13.50;96.40;;;;;;4934011;29;20038;-70
2021/08/19 00:42:20;;;;;;;3.63;2.15;;;13.50;96.80;;;;;;4916436;29;19966;-70
2021/08/19 00:44:47;;;;;;;5.22;2.53;;;13.40;96.70;;;;;;4933354;29;20038;-70
2021/08/19 00:47:13;;;;;;;5.38;2.88;;;13.40;96.60;;;;;;4933526;29;20031;-69
2021/08/19 00:49:42;;;;;;;3.75;1.95;;;13.30;96.80;;;;;;4933535;29;20031;-70
2021/08/19 00:52:08;;;;;;;4.22;2.45;;;13.30;97.00;;;;;;4933373;29;20031;-69
2021/08/19 00:54:34;;;;;;;;;;;13.20;96.90;;;;;;4933916;29;20485;-70
2021/08/19 00:57:05;;;;;;;5.18;2.65;;;13.10;97.00;;;;;;4933325;29;19917;-71
2021/08/19 00:59:38;;;;;;;4.03;2.08;;;13.00;97.20;;;;;;4933256;29;20031;-70
2021/08/19 01:02:05;;;;;;;5.82;2.50;;;13.00;97.80;;;;;;4933129;29;20028;-70
2021/08/19 01:04:32;;;;;;;6.15;2.25;;;13.00;97.20;;;;;;4933097;29;20519;-68
2021/08/19 01:07:01;;;;;;;5.03;2.25;;;12.90;96.90;;;;;;4932299;29;20500;-70
2021/08/19 01:09:28;;;;;;;7.20;2.33;;;13.00;96.90;;;;;;4916033;29;20020;-71
2021/08/19 01:11:54;;;;;;;4.95;2.08;;;13.00;97.00;;;;;;4932711;29;20450;-69
2021/08/19 01:14:20;;;;;;;4.47;2.30;;;13.00;96.70;;;;;;4933059;29;20663;-70
2021/08/19 01:16:47;;;;;;;4.50;2.17;;;13.00;96.90;;;;;;4915416;29;20472;-71
2021/08/19 01:19:21;;;;;;;4.60;2.25;;;13.00;97.10;;;;;;4932882;29;20036;-70
2021/08/19 01:21:49;;;;;;;3.13;1.90;;;13.10;97.00;;;;;;4932773;29;20031;-69
2021/08/19 01:24:15;;;;;;;3.80;2.25;;;13.10;96.90;;;;;;4932839;29;20032;-70
2021/08/19 01:26:41;;;;;;;;;;;13.10;97.00;;;;;;4933068;29;20115;-70
2021/08/19 01:29:07;;;;;;;8.43;2.08;;;13.20;97.00;;;;;;4932890;29;20329;-71
2021/08/19 01:31:33;;;;;;;;;;;13.20;97.00;;;;;;4933003;29;20110;-70
2021/08/19 01:33:59;;;;;;;3.20;1.50;;;13.30;97.10;;;;;;4932640;29;20006;-69
2021/08/19 01:36:25;;;;;;;2.47;1.30;;;13.30;97.00;;;;;;4932411;29;20059;-69
2021/08/19 01:38:51;;;;;;;;;;;13.30;96.80;;;;;;4932763;29;20032;-69
2021/08/19 01:41:18;;;;;;;6.05;1.77;;;13.50;97.10;;;;;;4932507;29;19997;-70
2021/08/19 01:43:46;;;;;;;2.70;1.73;;;13.40;97.10;;;;;;4932488;29;20045;-69
2021/08/19 01:46:14;;;;;;;5.35;2.08;;;13.50;97.00;;;;;;4915345;29;20067;-69
2021/08/19 01:48:41;;;;;;;5.25;1.73;;;13.60;97.20;;;;;;4932330;29;20027;-69
2021/08/19 01:51:09;;;;;;;2.78;1.58;;;13.60;96.40;;;;;;4915143;29;20099;-69
2021/08/19 01:53:35;;;;;;;4.28;2.17;;;13.60;96.40;;;;;;4932289;29;20035;-70
2021/08/19 01:56:00;;;;;;;;;;;13.60;96.40;;;;;;4932643;29;20054;-70
2021/08/19 01:58:26;;;;;;;2.42;1.33;;;13.60;96.60;;;;;;4932232;29;19969;-71
2021/08/19 02:00:53;;;;;;;3.55;1.60;;;13.60;96.60;;;;;;4931874;29;20024;-70
2021/08/19 02:03:19;;;;;;;3.05;1.30;;;13.50;96.80;;;;;;4932045;29;20035;-70
2021/08/19 02:05:48;;;;;;;;;;;13.50;97.00;;;;;;4932551;29;20042;-70
2021/08/19 02:08:15;;;;;;;2.40;1.27;;;13.40;97.40;;;;;;4932038;29;19993;-70
2021/08/19 02:10:41;;;;;;;2.25;1.13;;;13.40;97.30;;;;;;4931841;29;20461;-69
2021/08/19 02:13:07;;;;;;;;;;;13.30;97.40;;;;;;4932287;29;20556;-70
2021/08/19 02:15:33;;;;;;;6.00;1.65;;;13.30;97.50;;;;;;4914884;29;19933;-70
2021/08/19 02:17:58;;;;;;;;;;;13.30;97.60;;;;;;4932300;29;20043;-70
2021/08/19 02:20:25;;;;;;;2.92;1.30;;;13.30;97.90;;;;;;4931925;29;19917;-70
2021/08/19 02:22:50;;;;;;;2.53;1.30;;;13.20;97.70;;;;;;4931643;29;20036;-71
2021/08/19 02:25:17;;;;;;;;;;;13.20;97.70;;;;;;4932120;29;20095;-70
2021/08/19 02:27:43;;;;;;;1.98;1.10;;;13.30;97.70;;;;;;4931754;29;19917;-68
2021/08/19 02:30:10;;;;;;;2.13;1.05;;;13.30;97.60;;;;;;4914680;29;20036;-70
2021/08/19 02:32:36;;;;;;;2.28;1.30;;;13.30;97.70;;;;;;4914711;29;20036;-69
2021/08/19 02:35:02;;;;;;;;;;;13.30;98.10;;;;;;4931932;29;20050;-70
2021/08/19 02:37:27;;;;;;;2.08;1.13;;;13.30;98.30;;;;;;4931810;29;20001;-70
2021/08/19 02:39:53;;;;;;;;;;;13.30;98.00;;;;;;4931823;29;20032;-70
2021/08/19 02:42:19;;;;;;;3.10;1.40;;;13.30;98.00;;;;;;4931503;29;19911;-70
2021/08/19 02:44:44;;;;;;;;;;;13.30;97.90;;;;;;4931653;29;20036;-68
2021/08/19 02:47:10;;;;;;;7.40;1.20;;;13.30;98.00;;;;;;4914278;29;20284;-68
2021/08/19 02:49:35;;;;;;;;;;;13.30;98.10;;;;;;4931746;29;20079;-68
2021/08/19 02:52:01;;;;;;;3.65;1.13;;;13.30;98.40;;;;;;4931329;29;20410;-69
2021/08/19 02:54:26;;;;;;;;;;;13.20;98.40;;;;;;4931938;29;20028;-68
2021/08/19 02:56:54;;;;;;;2.65;1.27;;;13.20;98.40;;;;;;4931097;29;19978;-68
2021/08/19 02:59:19;;;;;;;;;;;13.20;98.40;;;;;;4931864;29;20039;-68
2021/08/19 03:01:45;;;;;;;4.47;1.17;;;13.20;98.70;;;;;;4931149;29;19911;-68
2021/08/19 03:04:10;;;;;;;;;;;13.20;98.70;;;;;;4931761;29;20035;-68
2021/08/19 03:06:36;;;;;;;2.53;1.17;;;13.20;98.80;;;;;;4931372;29;20288;-68
2021/08/19 03:09:02;;;;;;;;;;;13.10;99.00;;;;;;4914572;29;20405;-68
2021/08/19 03:11:27;;;;;;;2.38;0.98;;;13.10;99.40;;;;;;4931100;29;19910;-68
2021/08/19 03:13:53;;;;;;;;;;;13.10;99.20;;;;;;4931525;29;20042;-69
2021/08/19 03:16:19;;;;;;;7.22;1.35;;;13.10;99.70;;;;;;4931250;29;19989;-68
2021/08/19 03:18:45;;;;;;;2.58;1.23;;;13.00;99.40;;;;;;4930843;29;20036;-69
2021/08/19 03:21:11;;;;;;;;;;;13.00;99.90;;;;;;4914289;29;20607;-69
2021/08/19 03:23:36;;;;;;;3.67;1.58;;;13.00;99.80;;;;;;4930946;29;20360;-69
2021/08/19 03:26:05;;;;;;;;;;;12.90;99.90;;;;;;4931276;29;20036;-69
2021/08/19 03:28:30;;;;;;;3.97;1.40;;;12.80;99.90;;;;;;4931011;29;20757;-69
2021/08/19 03:30:57;;;;;;;;;;;12.80;99.90;;;;;;4934999;29;20027;-69
2021/08/19 03:33:22;;;;;;;2.63;1.08;;;12.70;99.90;;;;;;4934866;29;19910;-68
2021/08/19 03:35:49;;;;;;;;;;;12.60;99.90;;;;;;4935157;29;20107;-69
2021/08/19 03:38:14;;;;;;;;;;;12.60;99.90;;;;;;4935254;29;19914;-69
2021/08/19 03:40:40;;;;;;;;;;;12.50;99.90;;;;;;4934953;29;19937;-68
2021/08/19 03:43:05;;;;;;;;;;;12.50;99.90;;;;;;4935005;29;20295;-68
2021/08/19 03:45:31;;;;;;;;;;;12.50;99.90;;;;;;4935336;29;20009;-69
2021/08/19 03:47:57;;;;;;;;;;;12.50;99.90;;;;;;4917802;29;19963;-68
2021/08/19 03:50:22;;;;;;;;;;;12.50;99.90;;;;;;4918258;29;20361;-68
2021/08/19 03:52:49;;;;;;;;;;;12.50;99.90;;;;;;4934814;29;19911;-69
2021/08/19 03:55:15;;;;;;;;;;;12.60;99.90;;;;;;4917513;29;19919;-69
2021/08/19 03:57:40;;;;;;;;;;;12.60;99.90;;;;;;4934842;29;19916;-69
2021/08/19 04:00:06;;;;;;;;;;;12.60;99.90;;;;;;4917689;29;19993;-69
2021/08/19 04:02:32;;;;;;;;;;;12.70;99.90;;;;;;4934829;29;19907;-69
2021/08/19 04:04:57;;;;;;;;;;;12.70;99.90;;;;;;4934691;29;20176;-69
2021/08/19 04:07:23;;;;;;;;;;;12.70;99.90;;;;;;4934656;29;19921;-69
2021/08/19 04:09:49;;;;;;;;;;;12.80;99.90;;;;;;4934701;29;19945;-69
2021/08/19 04:12:14;;;;;;;;;;;12.90;99.90;;;;;;4934594;29;19926;-69
2021/08/19 04:14:40;;;;;;;;;;;12.90;99.90;;;;;;4934446;29;19915;-68
2021/08/19 04:17:05;;;;;;;;;;;13.00;99.90;;;;;;4934609;29;19990;-69
2021/08/19 04:19:31;;;;;;;;;;;13.00;99.90;;;;;;4934394;29;20021;-69
2021/08/19 04:21:56;;;;;;;;;;;13.10;99.90;;;;;;4934415;29;19951;-69
2021/08/19 04:24:22;;;;;;;;;;;13.20;99.90;;;;;;4934409;29;19911;-70
2021/08/19 04:26:47;;;;;;;;;;;13.30;99.90;;;;;;4934199;29;19918;-69
2021/08/19 04:29:13;;;;;;;;;;;13.40;99.90;;;;;;4934224;29;20386;-69
2021/08/19 04:31:38;;;;;;;;;;;13.50;99.90;;;;;;4917164;29;19911;-68
2021/08/19 04:34:04;;;;;;;;;;;13.50;99.90;;;;;;4934144;29;19934;-68
2021/08/19 04:36:30;;;;;;;;;;;13.50;99.90;;;;;;4933979;29;19919;-69
2021/08/19 04:38:55;;;;;;;;;;;13.60;99.90;;;;;;4917307;29;19945;-69
2021/08/19 04:41:21;;;;;;;;;;;13.60;99.80;;;;;;4932910;29;20431;-69
2021/08/19 04:43:47;;;;;;;;;;;13.80;99.90;;;;;;4934026;29;20450;-68
2021/08/19 04:46:12;;;;;;;;;;;13.80;99.60;;;;;;4933862;29;19919;-69
2021/08/19 04:48:38;;;;;;;;;;;13.90;99.80;;;;;;4934114;29;19910;-69
2021/08/19 04:51:03;;;;;;;;;;;14.10;99.60;;;;;;4916664;29;20388;-70
2021/08/19 04:53:29;;;;;;;;;;;14.30;98.80;;;;;;4934001;29;19953;-69
2021/08/19 04:55:54;;;;;;;;;;;14.50;98.70;;;;;;4916966;29;19997;-70
2021/08/19 04:58:20;;;;;;;;;;;14.70;98.40;;;;;;4933755;29;19953;-69
2021/08/19 05:00:45;;;;;;;;;;;14.90;97.70;;;;;;4900752;29;19915;-69
2021/08/19 05:03:11;;;;;;;;;;;15.20;97.10;;;;;;4933706;29;19993;-69
2021/08/19 05:05:36;;;;;;;;;;;15.70;96.20;;;;;;4916512;29;19962;-69
2021/08/19 05:08:02;;;;;;;;;;;16.00;95.30;;;;;;4933669;29;20431;-69
2021/08/19 05:10:28;;;;;;;;;;;16.20;95.00;;;;;;4933494;29;20388;-69
2021/08/19 05:12:53;;;;;;;;;;;16.30;94.80;;;;;;4933025;29;20009;-69
2021/08/19 05:15:20;;;;;;;;;;;16.30;94.70;;;;;;4933695;29;20716;-70
2021/08/19 05:17:46;;;;;;;;;;;16.40;94.80;;;;;;4916517;29;20338;-70
2021/08/19 05:20:12;;;;;;;;;;;16.50;94.70;;;;;;4933397;29;19911;-69
2021/08/19 05:22:37;;;;;;;;;;;16.70;94.40;;;;;;4933279;29;19911;-70
2021/08/19 05:25:03;;;;;;;;;;;17.00;93.70;;;;;;4933182;29;19914;-69
2021/08/19 05:27:29;;;;;;;;;;;17.50;92.40;;;;;;4933449;29;19910;-70
2021/08/19 05:29:54;;;;;;;;;;;18.00;91.10;;;;;;4916304;29;19910;-70
2021/08/19 05:32:20;;;;;;;;;;;18.50;90.10;;;;;;4933178;29;19914;-70
2021/08/19 05:34:45;;;;;;;;;;;18.90;87.00;;;;;;4933005;29;20013;-70
2021/08/19 05:37:11;;;;;;;;;;;19.10;85.60;;;;;;4917949;29;19950;-70
2021/08/19 05:39:36;;;;;;;;;;;19.20;85.50;;;;;;4924060;29;19998;-70
2021/08/19 05:42:02;;;;;;;;;;;19.20;84.20;;;;;;4930085;29;19911;-69
2021/08/19 05:44:27;;;;;;;;;;;19.40;82.70;;;;;;4930303;29;20013;-69
2021/08/19 05:46:53;;;;;;;;;;;19.50;81.50;;;;;;4909438;29;20021;-70
2021/08/19 05:49:18;;;;;;;;;;;19.70;80.30;;;;;;4910973;29;19911;-70
2021/08/19 05:51:44;;;;;;;;;;;20.40;78.30;;;;;;4926570;29;19958;-70
2021/08/19 05:54:09;;;;;;;;;;;21.00;76.20;;;;;;4930459;29;20382;-70
2021/08/19 05:56:35;;;;;;;;;;;21.50;72.90;;;;;;4930035;29;20019;-71
2021/08/19 05:59:00;;;;;;;;;;;21.90;71.50;;;;;;4929753;29;19921;-71
2021/08/19 06:01:26;;;;;;;;;;;22.50;68.70;;;;;;4929607;29;20033;-69
2021/08/19 06:03:51;;;;;;;;;;;23.00;66.10;;;;;;4929808;29;19966;-69
2021/08/19 06:06:18;;;;;;;;;;;23.60;65.00;;;;;;4929794;29;20033;-69
2021/08/19 06:08:43;;;;;;;;;;;23.90;62.20;;;;;;4929454;29;20394;-69
2021/08/19 06:11:09;;;;;;;;;;;24.40;60.70;;;;;;4928956;29;19910;-69
2021/08/19 06:13:34;;;;;;;;;;;24.90;58.20;;;;;;4929429;29;19918;-69
2021/08/19 06:16:00;;;;;;;;;;;25.30;55.90;;;;;;4929561;29;20411;-70
2021/08/19 06:18:25;;;;;;;;;;;25.80;55.40;;;;;;4930210;29;20348;-69
2021/08/19 06:20:51;;;;;;;;;;;26.30;53.40;;;;;;4927979;29;20025;-69
2021/08/19 06:23:16;;;;;;;;;;;26.70;52.00;;;;;;4929831;29;19911;-69
2021/08/19 06:25:42;;;;;;;;;;;27.10;51.20;;;;;;4929634;29;19970;-69
2021/08/19 06:28:08;;;;;;;;;;;27.40;49.70;;;;;;4929005;29;20009;-69
2021/08/19 06:30:34;;;;;;;;;;;27.70;49.10;;;;;;4911934;29;19911;-69
2021/08/19 06:33:00;;;;;;;;;;;28.10;47.70;;;;;;4928953;29;19983;-70
2021/08/19 06:35:26;;;;;;;;;;;28.50;46.70;;;;;;4933430;29;19936;-70
2021/08/19 06:37:51;;;;;;;;;;;28.90;45.60;;;;;;4930978;29;19907;-70
2021/08/19 06:40:17;;;;;;;;;;;29.10;45.10;;;;;;4948106;29;20379;-70
2021/08/19 06:42:43;;;;;;;;;;;29.30;44.20;;;;;;4948101;29;19910;-70
2021/08/19 06:45:08;;;;;;;;;;;29.50;44.30;;;;;;4948562;29;20712;-70
2021/08/19 06:47:34;;;;;;;;;;;29.80;44.10;;;;;;4948407;29;19914;-70
2021/08/19 06:50:00;;;;;;;;;;;29.60;44.10;;;;;;4947018;29;20330;-70
2021/08/19 06:52:25;;;;;;;;;;;29.90;43.20;;;;;;4935486;29;19910;-70
2021/08/19 06:54:51;;;;;;;;;;;29.90;43.90;;;;;;4927828;29;19919;-69
2021/08/19 06:57:16;;;;;;;;;;;30.10;43.30;;;;;;4929068;29;19911;-70
2021/08/19 06:59:42;;;;;;;;;;;30.20;43.10;;;;;;4929053;29;19974;-70
2021/08/19 07:02:07;;;;;;;;;;;30.30;43.50;;;;;;4928624;29;20518;-70
2021/08/19 07:04:33;;;;;;;;;;;30.40;43.30;;;;;;4928484;29;20351;-70
2021/08/19 07:06:58;;;;;;;;;;;30.50;42.90;;;;;;4928744;29;19919;-70
2021/08/19 07:09:24;;;;;;;;;;;30.70;42.20;;;;;;4911561;29;20292;-71
2021/08/19 07:11:50;;;;;;;;;;;30.70;42.00;;;;;;4935529;29;20340;-71
2021/08/19 07:14:15;;;;;;;;;;;30.50;42.50;;;;;;4930639;29;20335;-70
2021/08/19 07:16:41;;;;;;;;;;;30.70;41.60;;;;;;4947837;29;19910;-71
2021/08/19 07:19:06;;;;;;;;;;;30.70;41.70;;;;;;4947981;29;19914;-71
2021/08/19 07:21:32;;;;;;;;;;;31.00;41.80;;;;;;4947563;29;19917;-72
2021/08/19 07:23:58;;;;;;;;;;;31.50;40.70;;;;;;4947925;29;20186;-71
2021/08/19 07:26:24;;;;;;;;;;;31.20;40.20;;;;;;4930743;29;19918;-70
2021/08/19 07:28:50;;;;;;;;;;;30.80;42.10;;;;;;4928237;29;20295;-70
2021/08/19 07:31:15;;;;;;;;;;;30.70;42.20;;;;;;4932810;29;19914;-70
2021/08/19 07:33:41;;;;;;;;;;;30.80;42.00;;;;;;4930269;29;20379;-71
2021/08/19 07:36:07;;;;;;;;;;;31.30;42.10;;;;;;4947769;29;20678;-71
2021/08/19 07:38:32;;;;;;;;;;;31.80;41.00;;;;;;4930549;29;19910;-69
2021/08/19 07:40:58;;;;;;;;;;;31.90;41.00;;;;;;4931469;29;19957;-70
2021/08/19 07:43:23;;;;;;;;;;;32.10;40.20;;;;;;4947607;29;20038;-71
2021/08/19 07:45:49;;;;;;;;;;;32.00;39.70;;;;;;4947847;29;19914;-71
2021/08/19 07:48:15;;;;;;;;;;;32.20;40.30;;;;;;4947092;29;19914;-71
2021/08/19 07:50:41;;;;;;;;;;;32.50;40.30;;;;;;4946698;29;19961;-71
2021/08/19 07:53:06;;;;;;;;;;;32.70;40.10;;;;;;4947878;29;19910;-69
2021/08/19 07:55:32;;;;;;;;;;;33.20;38.40;;;;;;4946717;29;19917;-72
2021/08/19 07:57:58;;;;;;;;;;;33.30;37.30;;;;;;4945556;29;19974;-71
2021/08/19 08:00:27;;;;;;;;;;;33.50;37.20;;;;;;4948099;29;20375;-71
2021/08/19 08:02:53;;;;;;;;;;;33.60;36.60;;;;;;4947648;29;19910;-71
2021/08/19 08:05:20;;;;;;;;;;;33.30;36.30;;;;;;4930177;29;20395;-70
2021/08/19 08:07:45;;;;;;;;;;;33.40;36.60;;;;;;4947683;29;19911;-70
2021/08/19 08:10:11;;;;;;;;;;;33.10;37.00;;;;;;4947652;29;19915;-71
2021/08/19 08:12:37;;;;;;;;;;;32.90;37.10;;;;;;4937528;29;19981;-71
2021/08/19 08:15:03;;;;;;;;;;;31.90;38.70;;;;;;4947902;28;19910;-70
2021/08/19 08:17:31;;;;;;;;;;;31.50;40.30;;;;;;4950871;29;19944;-71
2021/08/19 08:19:57;;;;;;;;;;;31.50;39.90;;;;;;4951122;29;19925;-69
2021/08/19 08:22:23;;;;;;;;;;;31.40;40.50;;;;;;4951089;29;19910;-69
2021/08/19 08:24:48;;;;;;;;;;;31.10;40.60;;;;;;4950762;29;19911;-70
2021/08/19 08:27:14;;;;;;;;;;;31.30;40.50;;;;;;4935367;29;19994;-71
2021/08/19 08:29:39;;;;;;;;;;;31.20;39.90;;;;;;4931772;29;19966;-70
2021/08/19 08:32:06;;;;;;;;;;;31.00;39.20;;;;;;4914417;29;20006;-70
2021/08/19 08:34:34;;;;;;;;;;;31.00;39.60;;;;;;4931401;29;19978;-71
2021/08/19 08:37:00;;;;;;;;;;;31.30;39.60;;;;;;4930696;29;19927;-70
2021/08/19 08:39:25;;;;;;;;;;;31.70;36.80;;;;;;4930992;29;20280;-71
2021/08/19 08:41:51;;;;;;;;;;;32.20;35.20;;;;;;4930933;29;19921;-71
2021/08/19 08:44:17;;;;;;;;;;;32.80;33.80;;;;;;4931117;29;20355;-71
2021/08/19 08:46:43;;;;;;;;;;;32.50;35.40;;;;;;4913779;29;19970;-70
2021/08/19 08:49:09;;;;;;;;;;;32.20;36.90;;;;;;4931195;29;20001;-69
2021/08/19 08:51:38;;;;;;;;;;;32.50;35.70;;;;;;4931157;29;19910;-69
2021/08/19 08:54:03;;;;;;;;;;;32.50;34.90;;;;;;4930832;29;19910;-69
2021/08/19 08:56:29;;;;;;;;;;;32.80;35.30;;;;;;4930083;29;20296;-70
2021/08/19 08:58:55;;;;;;;;;;;32.90;34.60;;;;;;4928551;29;19910;-69
2021/08/19 09:01:21;;;;;;;;;;;33.10;34.10;;;;;;4933463;29;19926;-71
2021/08/19 09:03:46;;;;;;;;;;;33.10;35.60;;;;;;4945907;29;19918;-70
2021/08/19 09:06:15;;;;;;;;;;;33.50;33.80;;;;;;4930945;29;19920;-70
2021/08/19 09:08:53;;;;;;;;;;;33.70;33.90;;;;;;4930998;29;19914;-71
2021/08/19 09:11:19;;;;;;;;;;;33.80;34.30;;;;;;4932660;29;20344;-71
2021/08/19 09:13:45;;;;;;;;;;;33.80;34.10;;;;;;4930255;29;19942;-71
2021/08/19 09:16:15;;;;;;;;;;;34.40;32.70;;;;;;4931147;29;19946;-70
2021/08/19 09:18:40;;;;;;;;;;;34.50;31.50;;;;;;4913114;29;20530;-70
2021/08/19 09:21:16;;;;;;;;;;;34.10;32.30;;;;;;4930577;29;19910;-70
2021/08/19 09:23:42;;;;;;;;;;;34.10;33.50;;;;;;4930927;29;20060;-70
2021/08/19 09:26:07;;;;;;;;;;;33.50;32.00;;;;;;4929834;29;20379;-70
2021/08/19 09:28:33;;;;;;;;;;;32.30;32.40;;;;;;4929539;29;20017;-69
2021/08/19 09:31:03;;;;;;;;;;;31.00;34.60;;;;;;4930464;29;20643;-69
2021/08/19 09:33:30;;;;;;;;;;;30.10;37.60;;;;;;4913550;29;20287;-68
2021/08/19 09:35:57;;;;;;;;;;;29.30;38.40;;;;;;4930747;29;19948;-70
2021/08/19 09:38:23;;;;;;;;;;;28.70;39.00;;;;;;4912253;29;20280;-71
2021/08/19 09:41:01;;;;;;;;;;;28.20;38.20;;;;;;4929695;29;20406;-70
2021/08/19 09:43:37;;;;;;;;;;;27.90;38.40;;;;;;4913089;29;19926;-71
2021/08/19 09:46:02;;;;;;;;;;;27.60;41.80;;;;;;4930406;29;19958;-71
2021/08/19 09:48:28;;;;;;;;;;;27.10;43.20;;;;;;4940178;29;19957;-69
2021/08/19 09:51:09;;;;;;;;;;;26.80;43.80;;;;;;4951988;29;20367;-68
2021/08/19 09:53:40;;;;;;;;;;;26.60;43.70;;;;;;4951910;29;19917;-68
2021/08/19 09:56:09;;;;;;;;;;;26.30;45.10;;;;;;4951930;29;19929;-68
2021/08/19 09:58:34;;;;;;;;;;;26.10;46.60;;;;;;4951917;29;20450;-68
2021/08/19 10:01:00;;;;;;;;;;;26.10;46.80;;;;;;4951821;29;19938;-68
2021/08/19 10:03:26;;;;;;;;;;;26.10;46.50;;;;;;4951811;29;19914;-68
2021/08/19 10:05:53;;;;;;;;;;;26.00;45.50;;;;;;4951626;29;19918;-68
2021/08/19 10:08:18;;;;;;;;;;;25.90;45.40;;;;;;4951762;29;19910;-68
2021/08/19 10:10:44;;;;;;;;;;;25.90;44.20;;;;;;4951572;29;19954;-68
2021/08/19 10:13:13;;;;;;;;;;;25.90;44.40;;;;;;4951850;29;19958;-68
2021/08/19 10:15:39;;;;;;;;;;;25.90;44.20;;;;;;4952170;29;19906;-68
2021/08/19 10:18:05;;;;;;;;;;;25.90;43.80;;;;;;4951573;29;19932;-69
2021/08/19 10:20:33;;;;;;;;;;;25.90;45.60;;;;;;4951287;29;19921;-69
2021/08/19 10:22:59;;;;;;;;;;;25.80;46.80;;;;;;4951479;29;19937;-68
2021/08/19 10:25:26;;;;;;;;;;;25.80;48.00;;;;;;4950211;29;19919;-67
2021/08/19 10:28:27;;;;;;;;;;;25.60;48.10;;;;;;4951440;29;20422;-68
2021/08/19 10:30:54;;;;;;;;;;;25.50;48.30;;;;;;4854536;29;19948;-67
2021/08/19 10:33:37;;;;;;;;;;;25.40;47.90;;;;;;4931725;28;19910;-68
2021/08/19 10:36:12;;;;;;;;;;;25.40;48.60;;;;;;4950998;29;19945;-68
2021/08/19 10:38:38;;;;;;;;;;;25.40;48.90;;;;;;4950195;28;20367;-70
2021/08/19 10:41:24;;;;;;;;;;;25.40;47.90;;;;;;4951025;29;20358;-70
2021/08/19 10:44:02;;;;;;;;;;;25.40;48.50;;;;;;4950724;29;20008;-70
2021/08/19 10:46:36;;;;;;;;;;;25.60;46.50;;;;;;4950637;29;19937;-70
2021/08/19 10:49:01;;;;;;;;;;;25.80;45.90;;;;;;4951156;29;19918;-70
2021/08/19 10:51:27;;;;;;;;;;;25.90;45.80;;;;;;4950726;29;19957;-70
2021/08/19 10:53:53;;;;;;;;;;;26.10;44.00;;;;;;4950983;29;19965;-70
2021/08/19 10:56:38;;;;;;;;;;;26.10;43.10;;;;;;4951076;29;19917;-70
2021/08/19 10:59:23;;;;;;;;;;;26.10;43.00;;;;;;4951140;29;19910;-70
2021/08/19 11:01:51;;;;;;;;;;;25.90;42.60;;;;;;4950866;29;19965;-70
2021/08/19 11:04:43;;;;;;;;;;;25.80;42.80;;;;;;4933611;29;19906;-70
2021/08/19 11:07:10;;;;;;;;;;;25.60;44.60;;;;;;4946219;29;20442;-71
2021/08/19 11:09:36;;;;;;;;;;;25.60;43.50;;;;;;4950927;29;19916;-70
2021/08/19 11:12:05;;;;;;;;;;;25.80;42.30;;;;;;4950884;29;20040;-70
2021/08/19 11:14:30;;;;;;;;;;;26.00;44.50;;;;;;4950915;29;19913;-70
2021/08/19 11:16:57;;;;;;;;;;;26.10;43.80;;;;;;4950633;29;20360;-70
2021/08/19 11:19:23;;;;;;;;;;;26.30;43.50;;;;;;4933927;29;19917;-70
2021/08/19 11:21:56;;;;;;;;;;;26.30;42.40;;;;;;4950874;29;19910;-70
2021/08/19 11:24:22;;;;;;;;;;;26.30;42.10;;;;;;4950652;29;20379;-69
2021/08/19 11:26:58;;;;;;;;;;;26.40;42.80;;;;;;4933157;29;19965;-71
2021/08/19 11:29:37;;;;;;;;;;;26.40;41.80;;;;;;4950595;29;20271;-70
2021/08/19 11:32:04;;;;;;;;;;;26.50;41.50;;;;;;4950647;28;19906;-70
2021/08/19 11:34:29;;;;;;;;;;;26.50;41.90;;;;;;4950561;29;19910;-70
2021/08/19 11:36:55;;;;;;;;;;;26.50;41.40;;;;;;4950413;29;19918;-70
2021/08/19 11:39:27;;;;;;;;;;;26.50;40.90;;;;;;4950701;29;19957;-70
2021/08/19 11:42:00;;;;;;;;;;;26.50;42.10;;;;;;4933449;29;19906;-70
2021/08/19 11:44:26;;;;;;;;;;;26.50;43.40;;;;;;4950352;29;20336;-71
2021/08/19 11:46:58;;;;;;;;;;;26.30;43.40;;;;;;4950142;29;19922;-71
2021/08/19 11:49:23;;;;;;;;;;;26.30;43.00;;;;;;4950435;28;20351;-70
2021/08/19 11:51:58;;;;;;;;;;;26.40;43.10;;;;;;4953720;29;19911;-70
2021/08/19 11:54:36;;;;;;;;;;;26.40;43.10;;;;;;4954229;29;19945;-69
2021/08/19 11:57:01;;;;;;;;;;;26.30;42.30;;;;;;4954193;29;19914;-70
2021/08/19 11:59:27;;;;;;;;;;;26.40;42.00;;;;;;4954114;29;19938;-70
2021/08/19 12:01:53;;;;;;;;;;;26.60;44.10;;;;;;4953944;29;19966;-70
2021/08/19 12:04:32;;;;;;;;;;;26.90;42.10;;;;;;4953986;29;19966;-70
2021/08/19 12:06:58;;;;;;;;;;;27.00;41.10;;;;;;4953743;29;19918;-70
2021/08/19 12:09:24;;;;;;;;;;;27.00;41.00;;;;;;4953860;29;19910;-70
2021/08/19 12:11:52;;;;;;;;;;;27.10;41.60;;;;;;4953693;29;19997;-70
2021/08/19 12:14:23;;;;;;;;;;;27.20;40.60;;;;;;4953800;29;20385;-71
2021/08/19 12:16:50;;;;;;;;;;;27.30;41.10;;;;;;4953679;29;20000;-70
2021/08/19 12:19:19;;;;;;;;;;;27.50;40.40;;;;;;4953700;29;20364;-70
2021/08/19 12:21:51;;;;;;;;;;;27.60;40.40;;;;;;4953932;29;19915;-70
2021/08/19 12:24:19;;;;;;;;;;;27.70;39.30;;;;;;4953707;29;20280;-70
2021/08/19 12:27:03;;;;;;;;;;;27.60;41.50;;;;;;4936113;29;19915;-70
2021/08/19 12:29:29;;;;;;;;;;;27.60;41.60;;;;;;4953582;29;20375;-70
2021/08/19 12:31:54;;;;;;;;;;;27.50;41.20;;;;;;4953327;28;20302;-70
2021/08/19 12:34:20;;;;;;;;;;;27.50;41.00;;;;;;4953407;29;19911;-70
2021/08/19 12:36:47;;;;;;;;;;;27.20;39.50;;;;;;4953168;29;19922;-69
2021/08/19 12:39:36;;;;;;;;;;;26.90;39.80;;;;;;4953388;29;19914;-69
2021/08/19 12:42:09;;;;;;;;;;;26.80;40.30;;;;;;4935886;29;20367;-70
2021/08/19 12:44:35;;;;;;;;;;;26.60;42.30;;;;;;4953427;29;19907;-70
2021/08/19 12:47:00;;;;;;;;;;;26.40;43.50;;;;;;4953186;29;20367;-70
2021/08/19 12:49:33;;;;;;;;;;;26.30;44.30;;;;;;4953271;29;19910;-70
2021/08/19 12:52:14;;;;;;;;;;;26.30;44.60;;;;;;4953213;29;19993;-70
2021/08/19 12:54:40;;;;;;;;;;;26.40;45.40;;;;;;4953025;29;19911;-69
2021/08/19 12:57:06;;;;;;;;;;;26.40;45.90;;;;;;4953169;29;19952;-70
2021/08/19 12:59:34;;;;;;;;;;;26.30;46.20;;;;;;4935707;29;20350;-70
2021/08/19 13:02:02;;;;;;;;;;;26.30;44.90;;;;;;4952114;28;19915;-70
2021/08/19 13:04:28;;;;;;;;;;;26.50;45.00;;;;;;4952957;29;20376;-70
2021/08/19 13:06:53;;;;;;;;;;;26.80;46.20;;;;;;4952904;29;19961;-70
2021/08/19 13:09:19;;;;;;;;;;;27.00;44.70;;;;;;4952675;29;19917;-70
2021/08/19 13:11:44;;;;;;;;;;;27.20;44.00;;;;;;4952925;29;19916;-70
2021/08/19 13:14:10;;;;;;;;;;;27.20;41.50;;;;;;4935684;29;19917;-70
2021/08/19 13:16:35;;;;;;;;;;;26.90;41.60;;;;;;4952672;29;20012;-70
2021/08/19 13:19:01;;;;;;;;;;;26.50;42.20;;;;;;4952610;29;20305;-70
2021/08/19 13:21:26;;;;;;;;;;;26.40;42.60;;;;;;4952553;29;19910;-70
2021/08/19 13:23:53;;;;;;;;;;;26.10;43.30;;;;;;4952529;29;19925;-70
2021/08/19 13:26:19;;;;;;;;;;;25.80;43.60;;;;;;4935239;29;19918;-70
2021/08/19 13:28:44;;;;;;;;;;;25.80;43.40;;;;;;4935322;29;19910;-69
2021/08/19 13:31:10;;;;;;;;;;;25.70;43.10;;;;;;4952520;29;19910;-70
2021/08/19 13:33:35;;;;;;;;;;;25.50;43.50;;;;;;4952391;28;19966;-70
2021/08/19 13:36:01;;;;;;;;;;;25.40;44.40;;;;;;4952170;29;20402;-69
2021/08/19 13:38:26;;;;;;;;;;;25.30;44.20;;;;;;4952320;29;19910;-70
2021/08/19 13:40:52;;;;;;;;;;;25.10;44.80;;;;;;4952093;29;19910;-70
2021/08/19 13:43:18;;;;;;;;;;;24.90;46.60;;;;;;4952163;29;19981;-70
2021/08/19 13:45:43;;;;;;;;;;;24.90;46.60;;;;;;4952175;29;19918;-70
2021/08/19 13:48:09;;;;;;;;;;;24.90;46.10;;;;;;4952134;29;20458;-70
2021/08/19 13:50:34;;;;;;;;;;;25.00;45.60;;;;;;4952036;29;19910;-70
2021/08/19 13:53:00;;;;;;;;;;;25.20;44.80;;;;;;4952053;29;19917;-70
2021/08/19 13:55:25;;;;;;;;;;;25.50;46.30;;;;;;4952067;29;20009;-70
2021/08/19 13:57:51;;;;;;;;;;;25.70;44.80;;;;;;4934907;29;19915;-70